sensor_id;sensor_type;location;lat;lon;timestamp;P1;durP1;ratioP1;P2;durP2;ratioP2
40939;SDS011;26666;50.156;7.700;2022-08-27T00:04:00;9.63;;;1.35;;
40939;SDS011;26666;50.156;7.700;2022-08-27T00:09:01;3.65;;;1.75;;
40939;SDS011;26666;50.156;7.700;2022-08-27T00:14:04;8.52;;;1.95;;
40939;SDS011;26666;50.156;7.700;2022-08-27T00:19:05;2.92;;;1.00;;
40939;SDS011;26666;50.156;7.700;2022-08-27T00:24:07;3.55;;;1.70;;
40939;SDS011;26666;50.156;7.700;2022-08-27T00:29:09;4.88;;;2.05;;
40939;SDS011;26666;50.156;7.700;2022-08-27T00:34:10;5.55;;;1.98;;
40939;SDS011;26666;50.156;7.700;2022-08-27T00:39:13;5.07;;;2.28;;
40939;SDS011;26666;50.156;7.700;2022-08-27T00:44:15;14.35;;;3.90;;
40939;SDS011;26666;50.156;7.700;2022-08-27T00:54:24;9.00;;;2.92;;
40939;SDS011;26666;50.156;7.700;2022-08-27T00:59:27;8.10;;;3.10;;
40939;SDS011;26666;50.156;7.700;2022-08-27T01:04:29;6.35;;;2.45;;
40939;SDS011;26666;50.156;7.700;2022-08-27T01:09:32;4.75;;;3.00;;
40939;SDS011;26666;50.156;7.700;2022-08-27T01:14:34;8.93;;;4.43;;
40939;SDS011;26666;50.156;7.700;2022-08-27T01:19:43;4.30;;;2.90;;
40939;SDS011;26666;50.156;7.700;2022-08-27T01:24:49;11.43;;;2.88;;
40939;SDS011;26666;50.156;7.700;2022-08-27T01:29:54;16.38;;;3.55;;
40939;SDS011;26666;50.156;7.700;2022-08-27T01:34:57;10.95;;;3.80;;
40939;SDS011;26666;50.156;7.700;2022-08-27T01:39:59;5.60;;;3.10;;
40939;SDS011;26666;50.156;7.700;2022-08-27T01:45:04;8.13;;;3.63;;
40939;SDS011;26666;50.156;7.700;2022-08-27T01:50:15;5.20;;;2.75;;
40939;SDS011;26666;50.156;7.700;2022-08-27T01:55:28;8.83;;;2.93;;
40939;SDS011;26666;50.156;7.700;2022-08-27T02:00:32;16.27;;;3.13;;
40939;SDS011;26666;50.156;7.700;2022-08-27T02:05:38;11.90;;;4.43;;
40939;SDS011;26666;50.156;7.700;2022-08-27T02:10:46;8.15;;;4.13;;
40939;SDS011;26666;50.156;7.700;2022-08-27T02:15:48;9.63;;;5.00;;
40939;SDS011;26666;50.156;7.700;2022-08-27T02:20:50;12.77;;;4.38;;
40939;SDS011;26666;50.156;7.700;2022-08-27T02:25:51;7.43;;;4.50;;
40939;SDS011;26666;50.156;7.700;2022-08-27T02:30:53;10.07;;;5.10;;
40939;SDS011;26666;50.156;7.700;2022-08-27T02:35:54;11.35;;;5.70;;
40939;SDS011;26666;50.156;7.700;2022-08-27T02:40:56;8.32;;;4.88;;
40939;SDS011;26666;50.156;7.700;2022-08-27T02:45:57;8.75;;;3.95;;
40939;SDS011;26666;50.156;7.700;2022-08-27T02:50:59;11.00;;;4.97;;
40939;SDS011;26666;50.156;7.700;2022-08-27T02:56:00;18.88;;;6.60;;
40939;SDS011;26666;50.156;7.700;2022-08-27T03:01:03;9.63;;;6.35;;
40939;SDS011;26666;50.156;7.700;2022-08-27T03:06:04;15.02;;;5.93;;
40939;SDS011;26666;50.156;7.700;2022-08-27T03:11:06;14.35;;;7.65;;
40939;SDS011;26666;50.156;7.700;2022-08-27T03:16:07;15.13;;;6.80;;
40939;SDS011;26666;50.156;7.700;2022-08-27T03:21:14;14.18;;;7.88;;
40939;SDS011;26666;50.156;7.700;2022-08-27T03:26:20;20.80;;;7.80;;
40939;SDS011;26666;50.156;7.700;2022-08-27T03:31:23;19.17;;;7.30;;
40939;SDS011;26666;50.156;7.700;2022-08-27T03:36:28;12.97;;;6.90;;
40939;SDS011;26666;50.156;7.700;2022-08-27T03:41:30;16.20;;;8.43;;
40939;SDS011;26666;50.156;7.700;2022-08-27T03:46:52;19.15;;;7.28;;
40939;SDS011;26666;50.156;7.700;2022-08-27T03:51:53;25.67;;;8.88;;
40939;SDS011;26666;50.156;7.700;2022-08-27T03:56:54;22.42;;;8.52;;
40939;SDS011;26666;50.156;7.700;2022-08-27T04:01:56;15.77;;;9.07;;
40939;SDS011;26666;50.156;7.700;2022-08-27T04:06:58;17.75;;;9.00;;
40939;SDS011;26666;50.156;7.700;2022-08-27T04:11:59;16.25;;;7.75;;
40939;SDS011;26666;50.156;7.700;2022-08-27T04:17:01;25.58;;;10.70;;
40939;SDS011;26666;50.156;7.700;2022-08-27T04:22:03;17.20;;;9.40;;
40939;SDS011;26666;50.156;7.700;2022-08-27T04:27:07;22.48;;;9.85;;
40939;SDS011;26666;50.156;7.700;2022-08-27T04:32:09;21.73;;;11.48;;
40939;SDS011;26666;50.156;7.700;2022-08-27T04:37:11;26.38;;;10.93;;
40939;SDS011;26666;50.156;7.700;2022-08-27T04:42:12;21.33;;;10.77;;
40939;SDS011;26666;50.156;7.700;2022-08-27T04:47:14;19.95;;;8.95;;
40939;SDS011;26666;50.156;7.700;2022-08-27T04:52:15;18.08;;;8.80;;
40939;SDS011;26666;50.156;7.700;2022-08-27T04:57:17;22.95;;;8.77;;
40939;SDS011;26666;50.156;7.700;2022-08-27T05:02:19;19.05;;;10.10;;
40939;SDS011;26666;50.156;7.700;2022-08-27T05:07:20;16.52;;;7.93;;
40939;SDS011;26666;50.156;7.700;2022-08-27T05:12:22;18.48;;;10.02;;
40939;SDS011;26666;50.156;7.700;2022-08-27T05:17:23;22.13;;;9.10;;
40939;SDS011;26666;50.156;7.700;2022-08-27T05:22:25;18.00;;;8.93;;
40939;SDS011;26666;50.156;7.700;2022-08-27T05:27:26;16.70;;;8.20;;
40939;SDS011;26666;50.156;7.700;2022-08-27T05:32:28;15.65;;;8.43;;
40939;SDS011;26666;50.156;7.700;2022-08-27T05:37:29;19.52;;;8.82;;
40939;SDS011;26666;50.156;7.700;2022-08-27T05:42:31;16.85;;;8.27;;
40939;SDS011;26666;50.156;7.700;2022-08-27T05:47:32;13.98;;;7.55;;
40939;SDS011;26666;50.156;7.700;2022-08-27T05:52:41;12.25;;;6.55;;
40939;SDS011;26666;50.156;7.700;2022-08-27T05:57:42;15.70;;;8.05;;
40939;SDS011;26666;50.156;7.700;2022-08-27T06:02:44;14.38;;;7.32;;
40939;SDS011;26666;50.156;7.700;2022-08-27T06:07:45;14.60;;;7.22;;
40939;SDS011;26666;50.156;7.700;2022-08-27T06:12:47;19.98;;;5.90;;
40939;SDS011;26666;50.156;7.700;2022-08-27T06:17:48;11.48;;;5.15;;
40939;SDS011;26666;50.156;7.700;2022-08-27T06:22:50;12.00;;;4.85;;
40939;SDS011;26666;50.156;7.700;2022-08-27T06:27:51;13.52;;;4.55;;
40939;SDS011;26666;50.156;7.700;2022-08-27T06:32:53;12.35;;;4.22;;
40939;SDS011;26666;50.156;7.700;2022-08-27T06:37:54;14.43;;;4.35;;
40939;SDS011;26666;50.156;7.700;2022-08-27T06:42:56;7.88;;;3.63;;
40939;SDS011;26666;50.156;7.700;2022-08-27T06:47:57;10.13;;;4.65;;
40939;SDS011;26666;50.156;7.700;2022-08-27T06:52:58;9.30;;;3.90;;
40939;SDS011;26666;50.156;7.700;2022-08-27T06:58:00;8.73;;;3.15;;
40939;SDS011;26666;50.156;7.700;2022-08-27T07:03:02;6.15;;;2.70;;
40939;SDS011;26666;50.156;7.700;2022-08-27T07:08:03;8.90;;;3.97;;
40939;SDS011;26666;50.156;7.700;2022-08-27T07:13:06;9.63;;;3.88;;
40939;SDS011;26666;50.156;7.700;2022-08-27T07:18:08;6.97;;;3.42;;
40939;SDS011;26666;50.156;7.700;2022-08-27T07:23:12;10.60;;;3.85;;
40939;SDS011;26666;50.156;7.700;2022-08-27T07:28:13;7.22;;;2.90;;
40939;SDS011;26666;50.156;7.700;2022-08-27T07:33:15;8.90;;;3.30;;
40939;SDS011;26666;50.156;7.700;2022-08-27T07:38:17;8.20;;;3.63;;
40939;SDS011;26666;50.156;7.700;2022-08-27T07:43:18;6.43;;;3.67;;
40939;SDS011;26666;50.156;7.700;2022-08-27T07:48:23;5.63;;;3.53;;
40939;SDS011;26666;50.156;7.700;2022-08-27T07:58:26;6.45;;;3.50;;
40939;SDS011;26666;50.156;7.700;2022-08-27T08:03:28;6.45;;;2.88;;
40939;SDS011;26666;50.156;7.700;2022-08-27T08:08:29;7.38;;;2.70;;
40939;SDS011;26666;50.156;7.700;2022-08-27T08:13:31;8.23;;;3.90;;
40939;SDS011;26666;50.156;7.700;2022-08-27T08:18:35;7.97;;;3.15;;
40939;SDS011;26666;50.156;7.700;2022-08-27T08:23:37;13.45;;;3.00;;
40939;SDS011;26666;50.156;7.700;2022-08-27T08:28:39;7.95;;;2.55;;
40939;SDS011;26666;50.156;7.700;2022-08-27T08:33:40;6.07;;;2.58;;
40939;SDS011;26666;50.156;7.700;2022-08-27T08:38:42;5.82;;;2.50;;
40939;SDS011;26666;50.156;7.700;2022-08-27T08:43:45;3.50;;;1.85;;
40939;SDS011;26666;50.156;7.700;2022-08-27T08:48:47;4.40;;;2.65;;
40939;SDS011;26666;50.156;7.700;2022-08-27T08:53:57;7.18;;;2.60;;
40939;SDS011;26666;50.156;7.700;2022-08-27T08:59:11;12.05;;;3.38;;
40939;SDS011;26666;50.156;7.700;2022-08-27T09:04:17;6.15;;;1.63;;
40939;SDS011;26666;50.156;7.700;2022-08-27T09:09:20;5.10;;;1.92;;
40939;SDS011;26666;50.156;7.700;2022-08-27T09:19:46;8.80;;;3.45;;
40939;SDS011;26666;50.156;7.700;2022-08-27T09:25:10;6.88;;;2.45;;
40939;SDS011;26666;50.156;7.700;2022-08-27T09:30:31;7.20;;;3.13;;
40939;SDS011;26666;50.156;7.700;2022-08-27T09:35:41;10.18;;;3.03;;
40939;SDS011;26666;50.156;7.700;2022-08-27T09:40:47;4.60;;;2.37;;
40939;SDS011;26666;50.156;7.700;2022-08-27T09:45:52;6.03;;;3.38;;
40939;SDS011;26666;50.156;7.700;2022-08-27T09:51:05;6.25;;;3.55;;
40939;SDS011;26666;50.156;7.700;2022-08-27T09:56:20;12.43;;;4.38;;
40939;SDS011;26666;50.156;7.700;2022-08-27T10:01:23;14.18;;;3.78;;
40939;SDS011;26666;50.156;7.700;2022-08-27T10:06:27;25.05;;;6.47;;
40939;SDS011;26666;50.156;7.700;2022-08-27T10:11:44;10.95;;;5.63;;
40939;SDS011;26666;50.156;7.700;2022-08-27T10:17:06;15.90;;;6.65;;
40939;SDS011;26666;50.156;7.700;2022-08-27T10:27:39;16.17;;;7.28;;
40939;SDS011;26666;50.156;7.700;2022-08-27T10:48:39;17.67;;;7.85;;
40939;SDS011;26666;50.156;7.700;2022-08-27T10:59:00;12.93;;;6.60;;
40939;SDS011;26666;50.156;7.700;2022-08-27T11:04:16;14.63;;;7.30;;
40939;SDS011;26666;50.156;7.700;2022-08-27T11:15:29;14.75;;;6.93;;
40939;SDS011;26666;50.156;7.700;2022-08-27T11:20:15;16.85;;;7.45;;
40939;SDS011;26666;50.156;7.700;2022-08-27T11:25:34;17.98;;;7.88;;
40939;SDS011;26666;50.156;7.700;2022-08-27T11:41:24;15.70;;;7.45;;
40939;SDS011;26666;50.156;7.700;2022-08-27T11:46:46;26.05;;;8.68;;
40939;SDS011;26666;50.156;7.700;2022-08-27T11:52:01;26.58;;;7.38;;
40939;SDS011;26666;50.156;7.700;2022-08-27T11:57:12;19.70;;;5.80;;
40939;SDS011;26666;50.156;7.700;2022-08-27T12:02:19;17.48;;;7.68;;
40939;SDS011;26666;50.156;7.700;2022-08-27T12:07:24;11.50;;;5.78;;
40939;SDS011;26666;50.156;7.700;2022-08-27T12:12:32;11.93;;;6.68;;
40939;SDS011;26666;50.156;7.700;2022-08-27T12:23:11;17.88;;;6.65;;
40939;SDS011;26666;50.156;7.700;2022-08-27T12:28:24;11.20;;;5.43;;
40939;SDS011;26666;50.156;7.700;2022-08-27T12:33:34;13.77;;;6.65;;
40939;SDS011;26666;50.156;7.700;2022-08-27T12:38:45;19.33;;;6.82;;
40939;SDS011;26666;50.156;7.700;2022-08-27T12:44:00;11.07;;;5.85;;
40939;SDS011;26666;50.156;7.700;2022-08-27T12:49:04;10.95;;;5.53;;
40939;SDS011;26666;50.156;7.700;2022-08-27T12:54:44;9.98;;;5.60;;
40939;SDS011;26666;50.156;7.700;2022-08-27T13:00:18;13.93;;;5.80;;
40939;SDS011;26666;50.156;7.700;2022-08-27T13:05:34;12.57;;;4.88;;
40939;SDS011;26666;50.156;7.700;2022-08-27T13:10:38;10.57;;;6.65;;
40939;SDS011;26666;50.156;7.700;2022-08-27T13:15:43;14.88;;;6.40;;
40939;SDS011;26666;50.156;7.700;2022-08-27T13:20:47;12.23;;;6.75;;
40939;SDS011;26666;50.156;7.700;2022-08-27T13:26:01;11.27;;;5.78;;
40939;SDS011;26666;50.156;7.700;2022-08-27T13:31:04;13.05;;;6.75;;
40939;SDS011;26666;50.156;7.700;2022-08-27T13:36:09;13.70;;;6.40;;
40939;SDS011;26666;50.156;7.700;2022-08-27T13:41:17;12.68;;;5.75;;
40939;SDS011;26666;50.156;7.700;2022-08-27T13:46:26;14.93;;;7.43;;
40939;SDS011;26666;50.156;7.700;2022-08-27T13:51:31;15.32;;;7.55;;
40939;SDS011;26666;50.156;7.700;2022-08-27T13:56:37;17.77;;;7.50;;
40939;SDS011;26666;50.156;7.700;2022-08-27T14:01:52;13.65;;;7.10;;
40939;SDS011;26666;50.156;7.700;2022-08-27T14:06:54;16.50;;;7.60;;
40939;SDS011;26666;50.156;7.700;2022-08-27T14:12:05;16.98;;;7.82;;
40939;SDS011;26666;50.156;7.700;2022-08-27T14:17:23;14.35;;;8.00;;
40939;SDS011;26666;50.156;7.700;2022-08-27T14:22:29;19.65;;;7.43;;
40939;SDS011;26666;50.156;7.700;2022-08-27T14:27:31;12.63;;;5.93;;
40939;SDS011;26666;50.156;7.700;2022-08-27T14:32:35;13.10;;;6.67;;
40939;SDS011;26666;50.156;7.700;2022-08-27T14:37:37;13.43;;;5.88;;
40939;SDS011;26666;50.156;7.700;2022-08-27T14:42:42;12.02;;;5.78;;
40939;SDS011;26666;50.156;7.700;2022-08-27T14:47:43;12.20;;;5.88;;
40939;SDS011;26666;50.156;7.700;2022-08-27T14:52:45;11.82;;;5.55;;
40939;SDS011;26666;50.156;7.700;2022-08-27T14:57:47;6.90;;;4.53;;
40939;SDS011;26666;50.156;7.700;2022-08-27T15:02:48;8.63;;;5.25;;
40939;SDS011;26666;50.156;7.700;2022-08-27T15:07:50;12.57;;;5.32;;
40939;SDS011;26666;50.156;7.700;2022-08-27T15:12:53;8.07;;;5.10;;
40939;SDS011;26666;50.156;7.700;2022-08-27T15:17:54;6.05;;;3.92;;
40939;SDS011;26666;50.156;7.700;2022-08-27T15:22:56;6.15;;;4.20;;
40939;SDS011;26666;50.156;7.700;2022-08-27T15:27:57;6.97;;;4.32;;
40939;SDS011;26666;50.156;7.700;2022-08-27T15:32:59;7.57;;;3.95;;
40939;SDS011;26666;50.156;7.700;2022-08-27T15:38:01;6.70;;;4.20;;
40939;SDS011;26666;50.156;7.700;2022-08-27T15:43:03;11.02;;;5.13;;
40939;SDS011;26666;50.156;7.700;2022-08-27T15:48:07;5.90;;;3.85;;
40939;SDS011;26666;50.156;7.700;2022-08-27T15:53:09;6.25;;;4.13;;
40939;SDS011;26666;50.156;7.700;2022-08-27T15:58:10;10.50;;;3.72;;
40939;SDS011;26666;50.156;7.700;2022-08-27T16:03:13;7.63;;;3.50;;
40939;SDS011;26666;50.156;7.700;2022-08-27T16:08:16;3.17;;;2.67;;
40939;SDS011;26666;50.156;7.700;2022-08-27T16:13:17;9.50;;;3.28;;
40939;SDS011;26666;50.156;7.700;2022-08-27T16:18:30;7.47;;;3.22;;
40939;SDS011;26666;50.156;7.700;2022-08-27T16:23:33;8.93;;;3.63;;
40939;SDS011;26666;50.156;7.700;2022-08-27T16:28:35;7.03;;;3.80;;
40939;SDS011;26666;50.156;7.700;2022-08-27T16:33:37;61.20;;;5.00;;
40939;SDS011;26666;50.156;7.700;2022-08-27T16:38:40;8.48;;;3.55;;
40939;SDS011;26666;50.156;7.700;2022-08-27T16:43:42;8.05;;;3.47;;
40939;SDS011;26666;50.156;7.700;2022-08-27T16:48:44;10.15;;;3.10;;
40939;SDS011;26666;50.156;7.700;2022-08-27T16:53:46;7.95;;;4.25;;
40939;SDS011;26666;50.156;7.700;2022-08-27T16:58:48;8.23;;;2.83;;
40939;SDS011;26666;50.156;7.700;2022-08-27T17:03:52;7.60;;;2.70;;
40939;SDS011;26666;50.156;7.700;2022-08-27T17:09:12;7.03;;;2.42;;
40939;SDS011;26666;50.156;7.700;2022-08-27T17:14:14;3.65;;;1.80;;
40939;SDS011;26666;50.156;7.700;2022-08-27T17:19:16;4.35;;;2.58;;
40939;SDS011;26666;50.156;7.700;2022-08-27T17:24:17;7.32;;;2.15;;
40939;SDS011;26666;50.156;7.700;2022-08-27T17:29:19;4.13;;;2.15;;
40939;SDS011;26666;50.156;7.700;2022-08-27T17:34:22;7.20;;;2.42;;
40939;SDS011;26666;50.156;7.700;2022-08-27T17:39:25;5.95;;;2.03;;
40939;SDS011;26666;50.156;7.700;2022-08-27T17:44:31;10.27;;;2.67;;
40939;SDS011;26666;50.156;7.700;2022-08-27T17:49:36;11.43;;;3.53;;
40939;SDS011;26666;50.156;7.700;2022-08-27T17:54:38;8.68;;;2.47;;
40939;SDS011;26666;50.156;7.700;2022-08-27T17:59:42;9.60;;;2.70;;
40939;SDS011;26666;50.156;7.700;2022-08-27T18:04:43;3.17;;;2.85;;
40939;SDS011;26666;50.156;7.700;2022-08-27T18:09:45;3.33;;;2.55;;
40939;SDS011;26666;50.156;7.700;2022-08-27T18:14:50;10.82;;;3.85;;
40939;SDS011;26666;50.156;7.700;2022-08-27T18:19:54;8.45;;;2.72;;
40939;SDS011;26666;50.156;7.700;2022-08-27T18:24:56;7.97;;;3.08;;
40939;SDS011;26666;50.156;7.700;2022-08-27T18:29:58;6.70;;;3.15;;
40939;SDS011;26666;50.156;7.700;2022-08-27T18:35:11;6.18;;;3.22;;
40939;SDS011;26666;50.156;7.700;2022-08-27T18:40:19;9.80;;;2.30;;
40939;SDS011;26666;50.156;7.700;2022-08-27T18:45:24;4.63;;;2.70;;
40939;SDS011;26666;50.156;7.700;2022-08-27T18:50:28;7.45;;;2.67;;
40939;SDS011;26666;50.156;7.700;2022-08-27T18:55:30;11.15;;;3.03;;
40939;SDS011;26666;50.156;7.700;2022-08-27T19:00:31;2.97;;;2.75;;
40939;SDS011;26666;50.156;7.700;2022-08-27T19:05:33;9.90;;;3.30;;
40939;SDS011;26666;50.156;7.700;2022-08-27T19:10:36;5.75;;;2.58;;
40939;SDS011;26666;50.156;7.700;2022-08-27T19:15:39;6.60;;;2.47;;
40939;SDS011;26666;50.156;7.700;2022-08-27T19:20:42;6.03;;;3.35;;
40939;SDS011;26666;50.156;7.700;2022-08-27T19:25:44;3.85;;;2.38;;
40939;SDS011;26666;50.156;7.700;2022-08-27T19:30:46;11.88;;;3.85;;
40939;SDS011;26666;50.156;7.700;2022-08-27T19:35:47;8.80;;;2.92;;
40939;SDS011;26666;50.156;7.700;2022-08-27T19:40:49;7.00;;;2.80;;
40939;SDS011;26666;50.156;7.700;2022-08-27T19:45:50;4.57;;;2.85;;
40939;SDS011;26666;50.156;7.700;2022-08-27T19:50:52;8.70;;;3.42;;
40939;SDS011;26666;50.156;7.700;2022-08-27T19:55:54;3.92;;;2.65;;
40939;SDS011;26666;50.156;7.700;2022-08-27T20:00:56;6.05;;;2.95;;
40939;SDS011;26666;50.156;7.700;2022-08-27T20:05:58;4.97;;;3.38;;
40939;SDS011;26666;50.156;7.700;2022-08-27T20:10:59;7.18;;;3.92;;
40939;SDS011;26666;50.156;7.700;2022-08-27T20:16:01;5.00;;;3.80;;
40939;SDS011;26666;50.156;7.700;2022-08-27T20:21:04;4.55;;;2.78;;
40939;SDS011;26666;50.156;7.700;2022-08-27T20:26:06;5.93;;;2.85;;
40939;SDS011;26666;50.156;7.700;2022-08-27T20:31:08;7.10;;;3.58;;
40939;SDS011;26666;50.156;7.700;2022-08-27T20:36:11;3.08;;;2.78;;
40939;SDS011;26666;50.156;7.700;2022-08-27T20:41:12;3.63;;;2.58;;
40939;SDS011;26666;50.156;7.700;2022-08-27T20:46:14;3.08;;;2.20;;
40939;SDS011;26666;50.156;7.700;2022-08-27T20:51:18;3.53;;;2.80;;
40939;SDS011;26666;50.156;7.700;2022-08-27T20:56:20;4.90;;;2.55;;
40939;SDS011;26666;50.156;7.700;2022-08-27T21:01:22;3.50;;;2.42;;
40939;SDS011;26666;50.156;7.700;2022-08-27T21:06:24;3.47;;;2.20;;
40939;SDS011;26666;50.156;7.700;2022-08-27T21:11:26;4.85;;;3.58;;
40939;SDS011;26666;50.156;7.700;2022-08-27T21:16:28;6.90;;;2.53;;
40939;SDS011;26666;50.156;7.700;2022-08-27T21:21:30;3.35;;;2.47;;
40939;SDS011;26666;50.156;7.700;2022-08-27T21:26:31;4.53;;;2.95;;
40939;SDS011;26666;50.156;7.700;2022-08-27T21:31:33;7.25;;;3.17;;
40939;SDS011;26666;50.156;7.700;2022-08-27T21:36:34;4.32;;;3.50;;
40939;SDS011;26666;50.156;7.700;2022-08-27T21:41:36;2.80;;;2.35;;
40939;SDS011;26666;50.156;7.700;2022-08-27T21:46:38;5.25;;;2.78;;
40939;SDS011;26666;50.156;7.700;2022-08-27T21:51:39;3.22;;;2.65;;
40939;SDS011;26666;50.156;7.700;2022-08-27T21:56:41;3.08;;;2.80;;
40939;SDS011;26666;50.156;7.700;2022-08-27T22:01:42;5.22;;;2.15;;
40939;SDS011;26666;50.156;7.700;2022-08-27T22:06:44;6.03;;;3.10;;
40939;SDS011;26666;50.156;7.700;2022-08-27T22:11:46;2.70;;;2.42;;
40939;SDS011;26666;50.156;7.700;2022-08-27T22:16:47;4.60;;;2.13;;
40939;SDS011;26666;50.156;7.700;2022-08-27T22:21:49;4.25;;;2.58;;
40939;SDS011;26666;50.156;7.700;2022-08-27T22:26:50;8.35;;;2.28;;
40939;SDS011;26666;50.156;7.700;2022-08-27T22:31:52;5.07;;;2.10;;
40939;SDS011;26666;50.156;7.700;2022-08-27T22:36:54;4.03;;;2.33;;
40939;SDS011;26666;50.156;7.700;2022-08-27T22:41:55;3.72;;;1.70;;
40939;SDS011;26666;50.156;7.700;2022-08-27T22:46:57;8.50;;;2.45;;
40939;SDS011;26666;50.156;7.700;2022-08-27T22:51:59;5.65;;;2.65;;
40939;SDS011;26666;50.156;7.700;2022-08-27T22:57:00;10.15;;;3.10;;
40939;SDS011;26666;50.156;7.700;2022-08-27T23:02:02;2.70;;;2.10;;
40939;SDS011;26666;50.156;7.700;2022-08-27T23:07:04;2.28;;;1.83;;
40939;SDS011;26666;50.156;7.700;2022-08-27T23:12:06;6.38;;;2.55;;
40939;SDS011;26666;50.156;7.700;2022-08-27T23:17:07;7.25;;;2.08;;
40939;SDS011;26666;50.156;7.700;2022-08-27T23:22:09;2.92;;;2.30;;
40939;SDS011;26666;50.156;7.700;2022-08-27T23:27:11;4.20;;;2.20;;
40939;SDS011;26666;50.156;7.700;2022-08-27T23:32:12;4.03;;;2.50;;
40939;SDS011;26666;50.156;7.700;2022-08-27T23:37:14;5.00;;;2.10;;
40939;SDS011;26666;50.156;7.700;2022-08-27T23:42:15;8.15;;;2.90;;
40939;SDS011;26666;50.156;7.700;2022-08-27T23:47:17;2.72;;;2.47;;
40939;SDS011;26666;50.156;7.700;2022-08-27T23:52:19;6.70;;;1.58;;
40939;SDS011;26666;50.156;7.700;2022-08-27T23:57:20;6.97;;;2.05;;
